RWN weather

Rivne International Airport
Rivne, Rivne, Ukraine

Public forecast

Using degrees Celsius for public forecast. Weather courtesy of forecast.io.

Current aviation weather report (METAR) for Rivne International Airport

Retrieved 2019/12/09 04:30 UTC (16 minutes ago):

UKLR 090430Z 00000MPS CAVOK 01/M01 Q1006 NOSIG

Aviation forecast (TAF) for Rivne International Airport

Forecast is more than 12 hours old.

Retrieved 2019/08/16 12:15 UTC (4 months ago):

TAF TAF UKLR 161105Z 1612/1821 35003MPS 9999 BKN020 SCT023CB